Latest Weather Observations for Esperance

IDW60801

Issued at 10:05 pm WST Sunday 23 November 2014 (issued every 30 minutes, with the page automatically refreshed every 10 minutes)

About weather observations | Map of weather stations | Latest weather observations for WA | Other Formats
Station Details ID: 009789 Name: ESPERANCE Lat: -33.83 Lon: 121.89 Height: 25.0 m
Data from the previous 72 hours. | See also: Recent months at Esperance
Date/Time
WST
Temp
°C
App
Temp
°C
Dew
Point
Rel
Hum
%
Delta-T
°C
Wind Press
QNH
hPa
Press
MSL
hPa
Rain
since 9 am
mm
Dir
 
Spd
km/h
Gust
km/h
Spd
kts
Gust
kts
23/10:00pm 14.9 10.1 5.4 53 4.5 S 20 30 11 16 1020.4 1020.3 0.0
23/09:30pm 14.6 10.4 5.8 55 4.2 SSW 17 24 9 13 1020.4 1020.3 0.0
23/09:00pm 14.9 10.3 6.7 58 4.0 SSW 20 30 11 16 1020.3 1020.2 0.0
23/08:30pm 14.8 10.8 6.8 58 3.9 S 17 24 9 13 1019.9 1019.8 0.0
23/08:00pm 14.7 10.3 6.4 57 4.0 S 19 28 10 15 1019.5 1019.4 0.0
23/07:30pm 14.8 10.8 6.5 57 4.0 S 17 32 9 17 1019.1 1019.0 0.0
23/07:00pm 15.1 9.8 6.9 58 4.0 S 24 33 13 18 1018.7 1018.6 0.0
23/06:30pm 15.5 10.7 7.4 58 4.0 S 22 35 12 19 1018.2 1018.1 0.0
23/06:00pm 15.7 10.3 6.4 54 4.5 SSW 24 35 13 19 1017.7 1017.6 0.0
23/05:30pm 15.9 9.9 7.2 56 4.3 SSW 28 46 15 25 1017.1 1017.0 0.0
23/05:00pm 16.5 11.9 6.5 51 4.9 SSW 20 33 11 18 1016.7 1016.6 0.0
23/04:30pm 16.9 10.9 7.0 52 4.9 SSW 28 46 15 25 1016.2 1016.1 0.0
23/04:17pm 16.9 11.0 7.3 53 4.8 SSW 28 46 15 25 1016.0 1015.9 0.0
23/04:00pm 17.2 12.1 7.7 53 4.8 SSW 24 43 13 23 1015.9 1015.8 0.0
23/03:30pm 17.4 11.1 7.2 51 5.1 SSW 30 48 16 26 1015.6 1015.5 0.0
23/03:00pm 18.0 11.6 7.0 48 5.5 SSW 30 48 16 26 1015.2 1015.2 0.0
23/02:37pm 18.6 12.1 6.3 44 6.1 SSW 30 48 16 26 1015.2 1015.2 0.0
23/02:30pm 18.1 11.2 6.4 46 5.8 SSW 32 43 17 23 1015.1 1015.1 0.0
23/02:00pm 19.1 12.9 6.2 43 6.4 SW 28 43 15 23 1015.0 1015.0 0.0
23/01:30pm 18.7 12.3 7.0 46 5.9 SSW 30 48 16 26 1014.8 1014.8 0.0
23/01:00pm 19.4 13.4 7.2 45 6.2 SW 28 48 15 26 1014.8 1014.8 0.0
23/12:30pm 17.8 12.4 9.6 58 4.3 SSW 28 46 15 25 1014.9 1014.9 0.0
23/12:00pm 18.0 13.0 10.8 63 3.9 SW 28 46 15 25 1014.8 1014.8 0.0
23/11:30am 19.2 13.9 9.8 54 5.0 WSW 28 48 15 26 1014.6 1014.6 0.0
23/11:00am 18.5 13.3 10.3 59 4.4 WSW 28 46 15 25 1014.5 1014.5 0.0
23/10:36am 18.0 13.1 11.4 65 3.6 WSW 28 46 15 25 1014.6 1014.6 0.0
23/10:30am 18.9 13.4 9.0 52 5.2 WSW 28 41 15 22 1014.5 1014.5 0.0
23/10:00am 19.0 14.1 8.6 51 5.4 WSW 24 39 13 21 1014.4 1014.4 0.0
23/09:30am 20.0 16.1 9.5 50 5.6 WSW 20 32 11 17 1014.4 1014.4 0.0
23/09:00am 18.7 13.2 7.7 48 5.6 WSW 26 44 14 24 1014.3 1014.3 0.0
23/08:30am 19.2 14.7 6.9 44 6.2 W 20 33 11 18 1014.1 1014.1 0.0
23/08:00am 18.7 13.8 7.0 46 5.9 W 22 32 12 17 1013.9 1013.9 0.0
23/07:30am 17.9 13.2 9.3 57 4.5 WNW 24 35 13 19 1013.7 1013.7 0.0
23/06:30am 16.5 13.5 11.9 74 2.5 NW 19 30 10 16 1013.3 1013.3 0.0
23/06:00am 15.9 13.0 12.2 78 2.0 NW 19 26 10 14 1013.2 1013.2 0.0
23/05:30am 15.3 14.0 12.4 83 1.6 NNW 11 17 6 9 1012.8 1012.8 0.0
23/05:00am 15.0 12.8 12.2 83 1.5 NW 15 19 8 10 1012.6 1012.6 0.0
23/04:30am 14.7 13.1 12.7 88 1.1 NNW 13 17 7 9 1012.3 1012.3 0.0
23/04:00am 14.6 13.3 12.6 88 1.1 NW 11 15 6 8 1012.0 1012.0 0.0
23/03:46am 14.8 13.5 12.6 87 1.2 SW 11 19 6 10 1012.1 1012.1 0.0
23/03:30am 15.6 13.9 11.3 75 2.3 WNW 11 17 6 9 1011.8 1011.8 0.0
23/03:00am 15.6 13.5 11.3 75 2.3 NNW 13 17 7 9 1011.6 1011.6 0.0
23/02:30am 15.7 14.1 11.4 75 2.3 NW 11 13 6 7 1011.6 1011.6 0.0
23/02:00am 16.0 14.5 10.7 71 2.8 WSW 9 13 5 7 1011.8 1011.8 0.0
23/01:30am 15.9 15.0 10.6 71 2.8 W 6 9 3 5 1011.7 1011.7 0.0
23/01:00am 16.0 15.1 10.5 70 2.9 SW 6 9 3 5 1011.8 1011.8 0.0
23/12:30am 16.1 15.2 10.6 70 2.9 SW 6 11 3 6 1011.8 1011.8 0.0
23/12:00am 16.1 14.9 10.2 68 3.1 SW 7 13 4 7 1012.0 1012.0 0.0
 
Date/Time
WST
Temp
°C
App
Temp
°C
Dew
Point
Rel
Hum
%
Delta-T
°C
Wind Press
QNH
hPa
Press
MSL
hPa
Rain
since 9 am
mm
Dir
 
Spd
km/h
Gust
km/h
Spd
kts
Gust
kts
22/11:30pm 16.0 14.1 10.5 70 2.9 SSW 11 15 6 8 1012.1 1012.1 0.0
22/11:00pm 15.9 14.5 10.8 71 2.7 SW 9 13 5 7 1012.2 1012.2 0.0
22/10:30pm 15.8 14.9 11.3 74 2.4 SW 7 9 4 5 1012.1 1012.1 0.0
22/10:00pm 15.5 14.8 11.4 76 2.2 SW 6 9 3 5 1012.0 1012.0 0.0
22/09:30pm 15.0 14.0 11.1 77 2.1 SSW 7 11 4 6 1012.2 1012.2 0.0
22/09:00pm 15.1 13.7 11.0 76 2.2 SSW 9 9 5 5 1012.2 1012.2 0.0
22/08:30pm 15.5 13.7 11.0 74 2.4 SSW 11 13 6 7 1012.3 1012.3 0.0
22/08:00pm 15.9 14.5 11.0 72 2.6 SSW 9 13 5 7 1012.0 1012.0 0.0
22/07:30pm 16.3 14.9 10.9 70 2.9 S 9 15 5 8 1011.8 1011.8 0.0
22/07:00pm 16.4 14.7 11.2 71 2.8 S 11 13 6 7 1011.8 1011.8 0.0
22/06:30pm 16.8 14.7 11.0 68 3.1 S 13 17 7 9 1011.6 1011.6 0.0
22/06:00pm 17.1 14.9 10.8 66 3.4 S 13 19 7 10 1011.4 1011.4 0.0
22/05:30pm 17.3 15.1 10.8 65 3.5 S 13 20 7 11 1011.2 1011.2 0.0
22/05:00pm 17.0 14.5 10.9 67 3.3 S 15 22 8 12 1011.0 1011.0 0.0
22/04:30pm 17.3 14.4 11.0 66 3.4 S 17 24 9 13 1011.0 1011.0 0.0
22/04:00pm 17.7 14.4 11.0 65 3.6 S 19 26 10 14 1010.9 1010.9 0.0
22/03:30pm 17.2 14.0 11.1 67 3.3 S 19 28 10 15 1011.1 1011.1 0.0
22/03:00pm 18.4 15.4 12.1 66 3.5 SSW 19 30 10 16 1011.2 1011.2 0.0
22/02:30pm 18.5 15.3 11.8 65 3.7 S 20 28 11 15 1011.3 1011.3 0.0
22/02:00pm 18.8 15.2 11.7 63 3.9 S 22 33 12 18 1011.3 1011.3 0.0
22/01:30pm 19.7 16.4 11.6 59 4.5 S 20 32 11 17 1011.4 1011.4 0.0
22/01:00pm 20.1 16.9 12.0 59 4.5 SSW 20 37 11 20 1011.4 1011.4 0.0
22/12:30pm 21.1 17.2 8.8 45 6.5 SW 19 30 10 16 1011.5 1011.5 0.0
22/12:00pm 19.8 15.8 9.0 49 5.7 SW 20 28 11 15 1011.8 1011.8 0.0
22/11:30am 20.1 16.1 8.2 46 6.2 SW 19 30 10 16 1012.0 1012.0 0.0
22/11:00am 20.3 16.3 9.2 49 5.9 SW 20 32 11 17 1012.1 1012.1 0.0
22/10:30am 20.6 17.1 8.9 47 6.2 WSW 17 28 9 15 1012.3 1012.3 0.0
22/10:00am 19.6 16.3 9.6 52 5.3 SW 17 24 9 13 1012.4 1012.4 0.0
22/09:30am 20.5 16.5 9.2 48 6.0 WSW 20 33 11 18 1012.4 1012.4 0.0
22/09:00am 18.9 14.7 9.7 55 4.9 WSW 22 32 12 17 1012.4 1012.4 0.4
22/08:30am 19.4 16.0 10.5 56 4.8 W 19 28 10 15 1012.3 1012.3 0.4
22/08:00am 18.1 14.6 10.9 63 3.9 W 20 32 11 17 1012.3 1012.3 0.4
22/07:30am 17.4 15.3 13.7 79 2.1 WNW 17 24 9 13 1012.1 1012.1 0.4
22/07:00am 16.7 14.2 14.2 85 1.4 NW 20 26 11 14 1012.0 1012.0 0.4
22/06:30am 16.4 14.5 14.3 87 1.2 NW 17 22 9 12 1011.7 1011.7 0.4
22/06:00am 15.5 14.8 14.4 93 0.6 WNW 11 13 6 7 1011.5 1011.5 0.4
22/05:31am 15.1 14.0 14.4 96 0.4 NW 13 15 7 8 1011.3 1011.3 0.4
22/05:30am 15.1 14.0 14.4 96 0.4 NW 13 15 7 8 1011.3 1011.3 0.4
22/05:17am 14.9 13.8 14.2 96 0.4 NW 13 15 7 8 1011.2 1011.2 0.4
22/05:15am 14.9 14.2 14.2 96 0.4 NW 11 15 6 8 1011.1 1011.1 0.4
22/05:00am 14.8 14.4 14.1 96 0.4 NW 9 13 5 7 1010.9 1010.9 0.4
22/04:49am 14.9 14.5 14.2 96 0.4 WNW 9 13 5 7 1010.8 1010.8 0.4
22/04:35am 14.8 14.1 14.3 97 0.3 W 11 17 6 9 1010.7 1010.7 0.4
22/04:30am 14.8 14.0 14.1 96 0.4 WNW 11 17 6 9 1010.7 1010.7 0.4
22/04:13am 15.2 13.9 13.8 91 0.8 WNW 13 17 7 9 1010.5 1010.5 0.0
22/04:00am 15.4 14.4 13.4 88 1.1 WNW 11 17 6 9 1010.3 1010.3 0.0
22/03:59am 15.4 14.4 13.4 88 1.1 WNW 11 17 6 9 1010.3 1010.3 0.0
22/03:45am 15.4 14.7 13.2 87 1.2 WNW 9 13 5 7 1010.1 1010.1 0.0
22/03:30am 15.7 14.9 13.0 84 1.5 W 9 13 5 7 1010.0 1010.0 0.0
22/03:20am 16.0 14.7 12.6 80 1.9 WSW 11 19 6 10 1010.0 1010.0 0.0
22/03:00am 16.4 15.3 12.0 75 2.4 W 9 15 5 8 1009.9 1009.9 0.0
22/02:30am 16.6 15.5 11.8 73 2.6 SW 9 13 5 7 1009.8 1009.8 0.0
22/02:00am 16.5 15.4 12.1 75 2.4 SW 9 13 5 7 1009.6 1009.6 0.0
22/01:30am 16.6 14.7 11.8 73 2.6 SSW 13 20 7 11 1009.7 1009.7 0.0
22/01:00am 16.6 15.1 12.0 74 2.5 SSW 11 17 6 9 1009.9 1009.9 0.0
22/12:30am 16.8 14.8 12.7 77 2.3 SSW 15 22 8 12 1010.1 1010.1 0.0
22/12:00am 17.0 15.4 11.5 70 3.0 SW 11 19 6 10 1010.0 1010.0 0.0
 
Date/Time
WST
Temp
°C
App
Temp
°C
Dew
Point
Rel
Hum
%
Delta-T
°C
Wind Press
QNH
hPa
Press
MSL
hPa
Rain
since 9 am
mm
Dir
 
Spd
km/h
Gust
km/h
Spd
kts
Gust
kts
21/11:30pm 17.1 15.0 11.2 68 3.2 SW 13 20 7 11 1010.3 1010.3 0.0
21/11:00pm 17.1 14.7 11.4 69 3.1 SSW 15 22 8 12 1010.2 1010.2 0.0
21/10:30pm 17.1 15.1 11.6 70 3.0 SSW 13 20 7 11 1010.5 1010.5 0.0
21/10:00pm 17.1 15.6 11.8 71 2.9 SSW 11 15 6 8 1010.4 1010.4 0.0
21/09:30pm 17.2 16.0 11.7 70 3.0 S 9 13 5 7 1010.4 1010.4 0.0
21/09:00pm 17.2 15.6 11.5 69 3.1 S 11 15 6 8 1010.5 1010.5 0.0
21/08:30pm 17.0 15.8 11.7 71 2.9 SSW 9 17 5 9 1010.6 1010.6 0.0
21/08:00pm 17.2 15.3 11.7 70 3.0 S 13 19 7 10 1010.4 1010.4 0.0
21/07:30pm 17.4 15.6 12.1 71 2.9 S 13 17 7 9 1010.2 1010.2 0.0
21/07:00pm 17.4 16.0 12.3 72 2.8 SSE 11 17 6 9 1009.7 1009.7 0.0
21/06:30pm 17.5 16.2 12.5 72 2.8 S 11 15 6 8 1009.5 1009.5 0.0
21/06:00pm 17.9 15.7 12.1 69 3.2 S 15 20 8 11 1009.0 1009.0 0.0
21/05:30pm 18.3 15.3 11.8 66 3.6 S 19 24 10 13 1008.8 1008.8 0.0
21/05:00pm 18.8 16.5 11.7 63 3.9 S 15 22 8 12 1008.4 1008.4 0.0
21/04:30pm 19.1 16.0 12.1 64 3.9 S 20 28 11 15 1008.4 1008.4 0.0
21/04:00pm 19.5 16.9 13.2 67 3.6 S 19 30 10 16 1008.4 1008.4 0.0
21/03:30pm 20.0 17.3 12.8 63 4.1 S 19 28 10 15 1008.2 1008.2 0.0
21/03:00pm 20.2 17.3 12.4 61 4.4 SSW 19 28 10 15 1008.1 1008.1 0.0
21/02:30pm 19.9 16.5 11.4 58 4.7 S 20 35 11 19 1008.3 1008.3 0.0
21/02:00pm 20.9 17.0 12.0 56 5.0 S 24 39 13 21 1008.2 1008.2 0.0
21/01:30pm 20.6 17.0 12.9 61 4.4 SSW 24 37 13 20 1008.2 1008.2 0.0
21/01:00pm 21.0 17.6 13.7 63 4.2 SSW 24 33 13 18 1008.1 1008.1 0.0
21/12:30pm 21.1 17.7 13.7 62 4.3 S 24 35 13 19 1007.8 1007.8 0.0
21/12:00pm 22.3 18.6 12.7 54 5.5 SSW 24 33 13 18 1008.2 1008.2 0.0
21/11:30am 22.8 19.8 12.7 53 5.8 SW 20 32 11 17 1008.4 1008.4 0.0
21/11:00am 21.4 17.0 11.8 54 5.4 WSW 26 35 14 19 1008.6 1008.6 0.0
21/10:30am 22.3 18.6 11.6 50 6.0 W 22 33 12 18 1008.8 1008.8 0.0
21/10:00am 20.4 17.0 12.4 60 4.5 WSW 22 32 12 17 1009.1 1009.1 0.0
21/09:30am 21.0 17.5 12.1 56 5.0 WSW 22 35 12 19 1009.2 1009.2 0.0
21/09:00am 21.2 18.0 11.3 53 5.5 W 19 32 10 17 1009.2 1009.2 0.0
21/08:30am 20.7 17.4 11.7 56 5.0 W 20 32 11 17 1009.2 1009.2 0.0
21/08:00am 20.1 16.9 11.4 57 4.8 W 19 28 10 15 1009.3 1009.3 0.0
21/07:30am 18.9 15.7 11.4 61 4.1 WNW 19 24 10 13 1009.3 1009.3 0.0
21/07:00am 17.9 14.7 11.3 65 3.6 WNW 19 26 10 14 1009.1 1009.1 0.0
21/06:30am 17.2 14.9 11.7 70 3.0 WNW 15 22 8 12 1009.0 1009.0 0.0
21/06:00am 16.5 14.2 11.7 73 2.6 WNW 15 22 8 12 1008.7 1008.7 0.0
21/05:30am 16.5 14.1 12.5 77 2.2 WNW 17 22 9 12 1008.5 1008.5 0.0
21/05:00am 16.0 14.8 14.1 88 1.1 WNW 13 17 7 9 1008.2 1008.2 0.0
21/04:30am 16.0 14.7 14.8 93 0.7 NW 15 20 8 11 1007.9 1007.9 0.0
21/04:00am 16.2 15.5 15.3 94 0.5 WNW 13 19 7 10 1007.7 1007.7 0.0
21/03:30am 16.5 16.3 15.6 94 0.5 WNW 11 17 6 9 1007.6 1007.6 0.0
21/03:00am 16.3 16.1 15.8 97 0.3 NW 11 13 6 7 1007.6 1007.6 0.0
21/02:30am 16.4 16.2 15.7 96 0.4 WNW 11 15 6 8 1007.7 1007.7 0.0
21/02:00am 15.8 15.8 15.1 96 0.4 W 9 9 5 5 1007.6 1007.6 0.0
21/01:30am 15.6 15.5 14.9 96 0.4 W 9 11 5 6 1007.7 1007.7 0.0
21/01:00am 16.0 15.8 14.8 93 0.7 W 9 11 5 6 1007.7 1007.7 0.0
21/12:30am 16.7 16.9 14.6 87 1.2 W 7 11 4 6 1007.9 1007.9 0.0
21/12:00am 16.8 16.4 14.2 85 1.5 WNW 9 11 5 6 1008.0 1008.0 0.0
 
Date/Time
WST
Temp
°C
App
Temp
°C
Dew
Point
Rel
Hum
%
Delta-T
°C
Wind Press
QNH
hPa
Press
MSL
hPa
Rain
since 9 am
mm
Dir
 
Spd
km/h
Gust
km/h
Spd
kts
Gust
kts
20/11:30pm 17.5 17.3 14.7 83 1.6 SW 9 11 5 6 1008.4 1008.4 0.0
20/11:00pm 17.6 17.1 12.8 73 2.7 WSW 7 11 4 6 1008.7 1008.7 0.0
20/10:30pm 17.9 17.2 13.3 74 2.6 WSW 9 11 5 6 1008.8 1008.8 0.0

Other Formats:

Comma delimited format used in spreadsheet applications
http://www.bom.gov.au/fwo/IDW60801/IDW60801.94638.axf

JavaScript Object Notation format (JSON) in row-major order
http://www.bom.gov.au/fwo/IDW60801/IDW60801.94638.json